05U

Eureka Airport

Eureka, Nevada, USA
METAR K05U 140715Z AUTO 22005KT 10SM CLR M12/M14 A3036 RMK A01
Observed Flight Rules
Dec-14 @ 07:15 UTC (26 minutes ago) Visual Flight Rules
Wind Visibility Clouds
220° at 5 knots 10 miles
  • Clear skies
Temperatures Readings
Current -12°C / 10°F
Dewpoint -14°C / 7°F
Humidity 85%
Altimeter 30.36" Hg
Pressure 1028 hPa
Elevation 1816
METAR K05U 140715Z AUTO 22005KT 10SM CLR M12/M14 A3036 RMK A01
Observed Flight Rules
Dec-14 @ 07:15 UTC
(26 minutes ago)
VFR
Wind Visibility
220° at 5 knots 10 miles
Clouds
  • Clear skies
Temperature Dewpoint
-12°C / 10°F -14°C / 7°F
Humidity Altimeter Pressure
85% 30.36" Hg 1028 hPa